Weather at Ercan International Airport

Public forecast

Using degrees Celsius for public forecast. Weather courtesy of forecast.io.

Current aviation weather report (METAR) for Ercan International Airport

Retrieved 2021/04/20 13:50 UTC (22 minutes ago):

LCEN 201350Z 29023KT CAVOK 24/02 Q1010 NOSIG RMK RWY11 30020KT

Aviation forecast (TAF) for Ercan International Airport

Retrieved 2021/04/20 12:00 UTC (2 hours ago):

TAF LCEN 201040Z 2012/2112 30022KT CAVOK BECMG 2017/2020 28012KT TAF LTAC 201040Z 2012/2112 25012KT 9999 SCT040 BECMG 2017/2020 VRB02KT CAVOK BECMG 2104/2106 SCT040